sensor_id;sensor_type;location;lat;lon;timestamp;pressure;altitude;pressure_sealevel;temperature;humidity
65557;BME280;52200;53.490;14.376;2023-03-19T00:00:50;101260.97;;;6.31;84.16
65557;BME280;52200;53.490;14.376;2023-03-19T00:03:16;101250.06;;;6.24;84.27
65557;BME280;52200;53.490;14.376;2023-03-19T00:05:49;101254.25;;;6.16;84.51
65557;BME280;52200;53.490;14.376;2023-03-19T00:08:15;101257.63;;;6.10;85.29
65557;BME280;52200;53.490;14.376;2023-03-19T00:10:41;101255.88;;;5.94;84.60
65557;BME280;52200;53.490;14.376;2023-03-19T00:13:06;101259.25;;;5.90;85.71
65557;BME280;52200;53.490;14.376;2023-03-19T00:15:32;101259.28;;;5.93;84.98
65557;BME280;52200;53.490;14.376;2023-03-19T00:17:57;101254.22;;;5.93;85.46
65557;BME280;52200;53.490;14.376;2023-03-19T00:20:22;101253.38;;;5.83;85.30
65557;BME280;52200;53.490;14.376;2023-03-19T00:22:48;101260.91;;;5.81;84.68
65557;BME280;52200;53.490;14.376;2023-03-19T00:25:13;101262.59;;;5.73;85.77
65557;BME280;52200;53.490;14.376;2023-03-19T00:27:39;101260.09;;;5.90;85.85
65557;BME280;52200;53.490;14.376;2023-03-19T00:30:05;101251.63;;;5.67;86.41
65557;BME280;52200;53.490;14.376;2023-03-19T00:32:30;101256.72;;;5.68;86.51
65557;BME280;52200;53.490;14.376;2023-03-19T00:34:57;101252.50;;;5.76;86.29
65557;BME280;52200;53.490;14.376;2023-03-19T00:37:23;101255.84;;;5.75;85.56
65557;BME280;52200;53.490;14.376;2023-03-19T00:39:48;101262.56;;;5.59;86.06
65557;BME280;52200;53.490;14.376;2023-03-19T00:42:13;101259.22;;;5.62;85.89
65557;BME280;52200;53.490;14.376;2023-03-19T00:44:39;101260.06;;;5.69;85.73
65557;BME280;52200;53.490;14.376;2023-03-19T00:47:04;101255.81;;;5.63;86.00
65557;BME280;52200;53.490;14.376;2023-03-19T00:49:31;101256.66;;;5.49;86.25
65557;BME280;52200;53.490;14.376;2023-03-19T00:51:56;101260.81;;;5.44;86.12
65557;BME280;52200;53.490;14.376;2023-03-19T00:54:22;101264.19;;;5.45;85.91
65557;BME280;52200;53.490;14.376;2023-03-19T00:56:47;101262.50;;;5.45;86.12
65557;BME280;52200;53.490;14.376;2023-03-19T00:59:12;101256.63;;;5.48;86.22
65557;BME280;52200;53.490;14.376;2023-03-19T01:01:37;101260.84;;;5.47;86.38
65557;BME280;52200;53.490;14.376;2023-03-19T01:04:03;101259.94;;;5.30;86.28
65557;BME280;52200;53.490;14.376;2023-03-19T01:06:28;101266.66;;;5.29;86.51
65557;BME280;52200;53.490;14.376;2023-03-19T01:08:54;101265.75;;;5.10;86.46
65557;BME280;52200;53.490;14.376;2023-03-19T01:11:19;101273.31;;;5.20;86.68
65557;BME280;52200;53.490;14.376;2023-03-19T01:13:45;101279.25;;;5.25;86.48
65557;BME280;52200;53.490;14.376;2023-03-19T01:16:11;101280.91;;;5.26;85.77
65557;BME280;52200;53.490;14.376;2023-03-19T01:18:36;101270.75;;;5.03;86.36
65557;BME280;52200;53.490;14.376;2023-03-19T01:21:02;101265.72;;;5.07;86.68
65557;BME280;52200;53.490;14.376;2023-03-19T01:23:29;101264.06;;;5.06;87.59
65557;BME280;52200;53.490;14.376;2023-03-19T01:25:55;101262.38;;;5.05;86.84
65557;BME280;52200;53.490;14.376;2023-03-19T01:28:21;101256.47;;;5.05;86.80
65557;BME280;52200;53.490;14.376;2023-03-19T01:30:47;101254.84;;;5.11;86.28
65557;BME280;52200;53.490;14.376;2023-03-19T01:33:12;101254.03;;;5.19;86.29
65557;BME280;52200;53.490;14.376;2023-03-19T01:35:38;101248.94;;;5.09;86.16
65557;BME280;52200;53.490;14.376;2023-03-19T01:38:03;101249.75;;;5.00;87.21
65557;BME280;52200;53.490;14.376;2023-03-19T01:40:29;101248.06;;;5.01;86.62
65557;BME280;52200;53.490;14.376;2023-03-19T01:43:11;101260.63;;;4.98;87.14
65557;BME280;52200;53.490;14.376;2023-03-19T01:45:40;101258.91;;;4.88;87.46
65557;BME280;52200;53.490;14.376;2023-03-19T01:48:26;101276.47;;;4.77;87.89
65557;BME280;52200;53.490;14.376;2023-03-19T01:50:52;101271.53;;;4.94;87.25
65557;BME280;52200;53.490;14.376;2023-03-19T01:53:23;101273.22;;;5.01;86.79
65557;BME280;52200;53.490;14.376;2023-03-19T01:55:51;101269.03;;;4.97;87.11
65557;BME280;52200;53.490;14.376;2023-03-19T01:58:19;101272.31;;;4.83;87.17
65557;BME280;52200;53.490;14.376;2023-03-19T02:00:45;101271.50;;;4.91;86.93
65557;BME280;52200;53.490;14.376;2023-03-19T02:03:11;101270.69;;;4.90;85.91
65557;BME280;52200;53.490;14.376;2023-03-19T02:05:39;101270.69;;;4.95;86.18
65557;BME280;52200;53.490;14.376;2023-03-19T02:08:10;101269.78;;;4.85;86.42
65557;BME280;52200;53.490;14.376;2023-03-19T02:10:36;101272.13;;;4.56;86.82
65557;BME280;52200;53.490;14.376;2023-03-19T02:13:03;101267.09;;;4.56;87.23
65557;BME280;52200;53.490;14.376;2023-03-19T02:15:28;101265.50;;;4.67;87.40
65557;BME280;52200;53.490;14.376;2023-03-19T02:17:54;101262.16;;;4.71;87.01
65557;BME280;52200;53.490;14.376;2023-03-19T02:20:27;101264.72;;;4.74;86.51
65557;BME280;52200;53.490;14.376;2023-03-19T02:23:17;101263.84;;;4.72;86.05
65557;BME280;52200;53.490;14.376;2023-03-19T02:28:17;101262.16;;;4.70;85.88
65557;BME280;52200;53.490;14.376;2023-03-19T02:30:43;101260.47;;;4.68;86.92
65557;BME280;52200;53.490;14.376;2023-03-19T02:33:13;101268.84;;;4.66;86.73
65557;BME280;52200;53.490;14.376;2023-03-19T02:35:41;101275.56;;;4.68;86.84
65557;BME280;52200;53.490;14.376;2023-03-19T02:38:06;101270.53;;;4.67;86.23
65557;BME280;52200;53.490;14.376;2023-03-19T02:40:40;101276.31;;;4.54;86.79
65557;BME280;52200;53.490;14.376;2023-03-19T02:43:07;101275.47;;;4.55;86.43
65557;BME280;52200;53.490;14.376;2023-03-19T02:45:32;101278.91;;;4.63;86.57
65557;BME280;52200;53.490;14.376;2023-03-19T02:47:58;101274.66;;;4.60;85.84
65557;BME280;52200;53.490;14.376;2023-03-19T02:50:24;101278.69;;;4.33;87.54
65557;BME280;52200;53.490;14.376;2023-03-19T02:52:49;101279.63;;;4.49;87.30
65557;BME280;52200;53.490;14.376;2023-03-19T02:55:15;101280.56;;;4.64;86.99
65557;BME280;52200;53.490;14.376;2023-03-19T02:57:42;101273.00;;;4.62;87.07
65557;BME280;52200;53.490;14.376;2023-03-19T03:00:08;101278.09;;;4.68;87.28
65557;BME280;52200;53.490;14.376;2023-03-19T03:02:34;101273.91;;;4.69;87.02
65557;BME280;52200;53.490;14.376;2023-03-19T03:05:00;101277.28;;;4.74;87.15
65557;BME280;52200;53.490;14.376;2023-03-19T03:07:26;101277.22;;;4.65;87.05
65557;BME280;52200;53.490;14.376;2023-03-19T03:09:51;101273.00;;;4.59;87.89
65557;BME280;52200;53.490;14.376;2023-03-19T03:12:17;101275.56;;;4.67;87.98
65557;BME280;52200;53.490;14.376;2023-03-19T03:14:42;101278.16;;;4.81;87.65
65557;BME280;52200;53.490;14.376;2023-03-19T03:17:07;101284.91;;;4.90;87.13
65557;BME280;52200;53.490;14.376;2023-03-19T03:19:34;101287.41;;;4.80;87.51
65557;BME280;52200;53.490;14.376;2023-03-19T03:21:59;101280.72;;;4.89;87.68
65557;BME280;52200;53.490;14.376;2023-03-19T03:24:25;101286.63;;;4.92;87.57
65557;BME280;52200;53.490;14.376;2023-03-19T03:26:50;101288.31;;;4.95;87.17
65557;BME280;52200;53.490;14.376;2023-03-19T03:29:16;101287.47;;;4.93;87.53
65557;BME280;52200;53.490;14.376;2023-03-19T03:31:41;101289.06;;;4.78;87.82
65557;BME280;52200;53.490;14.376;2023-03-19T03:34:06;101292.47;;;4.87;88.14
65557;BME280;52200;53.490;14.376;2023-03-19T03:36:32;101292.44;;;4.85;88.13
65557;BME280;52200;53.490;14.376;2023-03-19T03:38:58;101292.41;;;4.74;88.20
65557;BME280;52200;53.490;14.376;2023-03-19T03:41:24;101292.44;;;4.80;88.13
65557;BME280;52200;53.490;14.376;2023-03-19T03:43:49;101289.91;;;4.82;87.88
65557;BME280;52200;53.490;14.376;2023-03-19T03:46:15;101279.03;;;4.84;87.90
65557;BME280;52200;53.490;14.376;2023-03-19T03:48:40;101277.28;;;4.74;87.97
65557;BME280;52200;53.490;14.376;2023-03-19T03:51:06;101282.34;;;4.76;87.62
65557;BME280;52200;53.490;14.376;2023-03-19T03:53:31;101294.88;;;4.73;87.95
65557;BME280;52200;53.490;14.376;2023-03-19T03:55:56;101293.19;;;4.67;87.52
65557;BME280;52200;53.490;14.376;2023-03-19T03:58:22;101287.31;;;4.71;88.28
65557;BME280;52200;53.490;14.376;2023-03-19T04:00:48;101292.34;;;4.68;87.95
65557;BME280;52200;53.490;14.376;2023-03-19T04:03:13;101290.66;;;4.70;88.44
65557;BME280;52200;53.490;14.376;2023-03-19T04:05:39;101294.00;;;4.67;88.52
65557;BME280;52200;53.490;14.376;2023-03-19T04:08:06;101288.97;;;4.64;88.39
65557;BME280;52200;53.490;14.376;2023-03-19T04:10:32;101285.41;;;4.36;88.44
65557;BME280;52200;53.490;14.376;2023-03-19T04:13:00;101287.16;;;4.46;89.05
65557;BME280;52200;53.490;14.376;2023-03-19T04:15:25;101284.75;;;4.63;88.66
65557;BME280;52200;53.490;14.376;2023-03-19T04:17:50;101279.75;;;4.66;87.87
65557;BME280;52200;53.490;14.376;2023-03-19T04:20:16;101280.56;;;4.64;87.75
65557;BME280;52200;53.490;14.376;2023-03-19T04:22:43;101276.31;;;4.54;88.67
65557;BME280;52200;53.490;14.376;2023-03-19T04:25:08;101278.88;;;4.60;88.91
65557;BME280;52200;53.490;14.376;2023-03-19T04:27:34;101270.44;;;4.58;88.22
65557;BME280;52200;53.490;14.376;2023-03-19T04:29:59;101281.41;;;4.64;88.61
65557;BME280;52200;53.490;14.376;2023-03-19T04:32:25;101278.09;;;4.65;88.49
65557;BME280;52200;53.490;14.376;2023-03-19T04:34:51;101282.28;;;4.70;88.22
65557;BME280;52200;53.490;14.376;2023-03-19T04:37:17;101284.72;;;4.57;87.88
65557;BME280;52200;53.490;14.376;2023-03-19T04:39:42;101283.50;;;4.07;91.01
65557;BME280;52200;53.490;14.376;2023-03-19T04:42:08;101289.56;;;4.32;90.43
65557;BME280;52200;53.490;14.376;2023-03-19T04:44:34;101278.59;;;4.23;91.23
65557;BME280;52200;53.490;14.376;2023-03-19T04:46:59;101287.97;;;4.45;90.44
65557;BME280;52200;53.490;14.376;2023-03-19T04:49:25;101306.44;;;4.49;90.57
65557;BME280;52200;53.490;14.376;2023-03-19T04:51:51;101297.97;;;4.38;90.18
65557;BME280;52200;53.490;14.376;2023-03-19T04:54:16;101297.16;;;4.42;89.96
65557;BME280;52200;53.490;14.376;2023-03-19T04:56:41;101308.91;;;4.38;90.02
65557;BME280;52200;53.490;14.376;2023-03-19T04:59:07;101299.72;;;4.45;89.98
65557;BME280;52200;53.490;14.376;2023-03-19T05:01:32;101294.78;;;4.57;89.13
65557;BME280;52200;53.490;14.376;2023-03-19T05:03:58;101288.88;;;4.54;89.26
65557;BME280;52200;53.490;14.376;2023-03-19T05:06:23;101279.66;;;4.52;90.11
65557;BME280;52200;53.490;14.376;2023-03-19T05:08:48;101279.78;;;4.71;89.47
65557;BME280;52200;53.490;14.376;2023-03-19T05:11:14;101279.78;;;4.70;89.47
65557;BME280;52200;53.490;14.376;2023-03-19T05:13:39;101282.34;;;4.77;89.29
65557;BME280;52200;53.490;14.376;2023-03-19T05:16:05;101274.00;;;4.84;89.00
65557;BME280;52200;53.490;14.376;2023-03-19T05:18:30;101280.75;;;4.93;88.37
65557;BME280;52200;53.490;14.376;2023-03-19T05:20:56;101288.97;;;4.64;89.90
65557;BME280;52200;53.490;14.376;2023-03-19T05:23:21;101290.66;;;4.67;89.99
65557;BME280;52200;53.490;14.376;2023-03-19T05:25:47;101291.56;;;4.77;89.62
65557;BME280;52200;53.490;14.376;2023-03-19T05:28:13;101297.34;;;4.65;90.76
65557;BME280;52200;53.490;14.376;2023-03-19T05:30:39;101306.66;;;4.75;90.45
65557;BME280;52200;53.490;14.376;2023-03-19T05:33:04;101301.69;;;4.84;89.98
65557;BME280;52200;53.490;14.376;2023-03-19T05:35:30;101305.88;;;4.86;90.24
65557;BME280;52200;53.490;14.376;2023-03-19T05:37:56;101305.97;;;5.01;89.58
65557;BME280;52200;53.490;14.376;2023-03-19T05:40:22;101322.75;;;4.99;89.92
65557;BME280;52200;53.490;14.376;2023-03-19T05:42:48;101328.66;;;5.06;89.69
65557;BME280;52200;53.490;14.376;2023-03-19T05:45:14;101328.75;;;5.26;90.28
65557;BME280;52200;53.490;14.376;2023-03-19T05:47:41;101338.91;;;5.37;89.50
65557;BME280;52200;53.490;14.376;2023-03-19T05:50:07;101336.25;;;5.12;90.96
65557;BME280;52200;53.490;14.376;2023-03-19T05:52:33;101335.59;;;5.44;91.77
65557;BME280;52200;53.490;14.376;2023-03-19T05:54:58;101343.19;;;5.58;91.75
65557;BME280;52200;53.490;14.376;2023-03-19T05:57:24;101354.97;;;5.65;91.73
65557;BME280;52200;53.490;14.376;2023-03-19T05:59:49;101356.63;;;5.54;92.52
65557;BME280;52200;53.490;14.376;2023-03-19T06:02:15;101343.28;;;5.79;92.69
65557;BME280;52200;53.490;14.376;2023-03-19T06:04:40;101339.13;;;5.95;91.51
65557;BME280;52200;53.490;14.376;2023-03-19T06:07:05;101354.34;;;6.29;91.25
65557;BME280;52200;53.490;14.376;2023-03-19T06:09:31;101344.25;;;6.59;90.04
65557;BME280;52200;53.490;14.376;2023-03-19T06:11:56;101346.78;;;6.67;89.02
65557;BME280;52200;53.490;14.376;2023-03-19T06:14:22;101340.03;;;6.35;89.95
65557;BME280;52200;53.490;14.376;2023-03-19T06:16:48;101345.97;;;6.40;90.39
65557;BME280;52200;53.490;14.376;2023-03-19T06:19:13;101352.66;;;6.95;89.02
65557;BME280;52200;53.490;14.376;2023-03-19T06:21:38;101350.91;;;7.23;87.53
65557;BME280;52200;53.490;14.376;2023-03-19T06:24:04;101353.50;;;6.86;87.76
65557;BME280;52200;53.490;14.376;2023-03-19T06:26:30;101345.88;;;7.16;86.62
65557;BME280;52200;53.490;14.376;2023-03-19T06:28:55;101339.97;;;7.23;86.55
65557;BME280;52200;53.490;14.376;2023-03-19T06:31:20;101347.53;;;7.29;86.51
65557;BME280;52200;53.490;14.376;2023-03-19T06:33:46;101344.97;;;7.32;86.71
65557;BME280;52200;53.490;14.376;2023-03-19T06:36:11;101343.34;;;7.20;87.20
65557;BME280;52200;53.490;14.376;2023-03-19T06:38:37;101349.25;;;7.04;87.78
65557;BME280;52200;53.490;14.376;2023-03-19T06:41:02;101353.41;;;7.31;87.63
65557;BME280;52200;53.490;14.376;2023-03-19T06:43:28;101357.59;;;7.38;86.68
65557;BME280;52200;53.490;14.376;2023-03-19T06:45:53;101344.09;;;7.49;86.11
65557;BME280;52200;53.490;14.376;2023-03-19T06:48:18;101354.94;;;7.74;85.31
65557;BME280;52200;53.490;14.376;2023-03-19T06:50:45;101352.25;;;8.00;84.83
65557;BME280;52200;53.490;14.376;2023-03-19T06:53:11;101354.56;;;8.37;82.97
65557;BME280;52200;53.490;14.376;2023-03-19T06:55:37;101362.06;;;8.54;83.24
65557;BME280;52200;53.490;14.376;2023-03-19T06:58:02;101375.34;;;8.83;81.54
65557;BME280;52200;53.490;14.376;2023-03-19T07:00:28;101376.00;;;9.02;81.44
65557;BME280;52200;53.490;14.376;2023-03-19T07:02:53;101370.81;;;9.16;80.92
65557;BME280;52200;53.490;14.376;2023-03-19T07:05:18;101374.88;;;9.28;80.36
65557;BME280;52200;53.490;14.376;2023-03-19T07:07:44;101368.09;;;9.30;79.52
65557;BME280;52200;53.490;14.376;2023-03-19T07:10:10;101367.13;;;9.43;79.55
65557;BME280;52200;53.490;14.376;2023-03-19T07:12:35;101371.19;;;9.55;78.31
65557;BME280;52200;53.490;14.376;2023-03-19T07:15:00;101379.63;;;9.60;78.54
65557;BME280;52200;53.490;14.376;2023-03-19T07:17:26;101383.88;;;9.55;77.87
65557;BME280;52200;53.490;14.376;2023-03-19T07:19:51;101374.28;;;9.80;77.50
65557;BME280;52200;53.490;14.376;2023-03-19T07:22:17;101373.19;;;9.98;76.51
65557;BME280;52200;53.490;14.376;2023-03-19T07:24:43;101379.78;;;10.10;76.58
65557;BME280;52200;53.490;14.376;2023-03-19T07:27:09;101379.81;;;10.07;76.35
65557;BME280;52200;53.490;14.376;2023-03-19T07:29:34;101376.25;;;10.22;75.40
65557;BME280;52200;53.490;14.376;2023-03-19T07:32:00;101370.84;;;10.44;74.46
65557;BME280;52200;53.490;14.376;2023-03-19T07:34:26;101382.13;;;10.79;73.59
65557;BME280;52200;53.490;14.376;2023-03-19T07:36:51;101383.94;;;10.74;73.46
65557;BME280;52200;53.490;14.376;2023-03-19T07:39:17;101397.81;;;10.53;73.73
65557;BME280;52200;53.490;14.376;2023-03-19T07:41:43;101423.81;;;10.09;75.41
65557;BME280;52200;53.490;14.376;2023-03-19T07:44:09;101418.66;;;10.15;75.28
65557;BME280;52200;53.490;14.376;2023-03-19T07:46:35;101424.63;;;10.11;75.53
65557;BME280;52200;53.490;14.376;2023-03-19T07:49:01;101431.34;;;10.15;75.30
65557;BME280;52200;53.490;14.376;2023-03-19T07:51:26;101441.16;;;10.43;73.45
65557;BME280;52200;53.490;14.376;2023-03-19T07:53:52;101442.91;;;10.38;74.44
65557;BME280;52200;53.490;14.376;2023-03-19T07:56:17;101435.75;;;10.03;75.40
65557;BME280;52200;53.490;14.376;2023-03-19T07:58:42;101442.63;;;9.94;74.71
65557;BME280;52200;53.490;14.376;2023-03-19T08:01:08;101446.63;;;10.11;74.92
65557;BME280;52200;53.490;14.376;2023-03-19T08:03:33;101438.59;;;10.45;73.33
65557;BME280;52200;53.490;14.376;2023-03-19T08:05:58;101442.22;;;10.25;74.11
65557;BME280;52200;53.490;14.376;2023-03-19T08:08:24;101442.38;;;10.13;74.44
65557;BME280;52200;53.490;14.376;2023-03-19T08:10:52;101447.28;;;9.55;77.54
65557;BME280;52200;53.490;14.376;2023-03-19T08:13:18;101428.94;;;9.34;82.16
65557;BME280;52200;53.490;14.376;2023-03-19T08:15:43;101426.63;;;9.10;85.96
65557;BME280;52200;53.490;14.376;2023-03-19T08:18:08;101426.47;;;9.25;86.07
65557;BME280;52200;53.490;14.376;2023-03-19T08:20:34;101414.72;;;9.16;86.60
65557;BME280;52200;53.490;14.376;2023-03-19T08:23:00;101418.00;;;9.29;86.79
65557;BME280;52200;53.490;14.376;2023-03-19T08:25:25;101422.31;;;9.19;87.93
65557;BME280;52200;53.490;14.376;2023-03-19T08:27:51;101418.41;;;8.80;89.98
65557;BME280;52200;53.490;14.376;2023-03-19T08:30:17;101416.75;;;8.76;91.70
65557;BME280;52200;53.490;14.376;2023-03-19T08:32:45;101408.38;;;8.70;91.94
65557;BME280;52200;53.490;14.376;2023-03-19T08:35:11;101407.50;;;8.76;92.99
65557;BME280;52200;53.490;14.376;2023-03-19T08:37:36;101412.44;;;8.87;92.37
65557;BME280;52200;53.490;14.376;2023-03-19T08:40:03;101413.13;;;9.04;92.77
65557;BME280;52200;53.490;14.376;2023-03-19T08:42:28;101411.50;;;9.00;93.26
65557;BME280;52200;53.490;14.376;2023-03-19T08:44:54;101418.59;;;8.55;96.43
65557;BME280;52200;53.490;14.376;2023-03-19T08:47:20;101409.28;;;8.59;96.58
65557;BME280;52200;53.490;14.376;2023-03-19T08:49:48;101417.63;;;8.73;97.65
65557;BME280;52200;53.490;14.376;2023-03-19T08:52:14;101406.53;;;8.91;96.74
65557;BME280;52200;53.490;14.376;2023-03-19T08:54:39;101406.22;;;9.22;95.58
65557;BME280;52200;53.490;14.376;2023-03-19T08:57:04;101395.97;;;9.31;95.12
65557;BME280;52200;53.490;14.376;2023-03-19T08:59:30;101390.84;;;9.38;94.02
65557;BME280;52200;53.490;14.376;2023-03-19T09:01:55;101393.25;;;9.50;94.57
65557;BME280;52200;53.490;14.376;2023-03-19T09:04:21;101386.34;;;9.61;94.20
65557;BME280;52200;53.490;14.376;2023-03-19T09:06:47;101394.66;;;9.74;93.46
65557;BME280;52200;53.490;14.376;2023-03-19T09:09:19;101384.47;;;9.79;93.34
65557;BME280;52200;53.490;14.376;2023-03-19T09:11:46;101385.19;;;9.87;93.20
65557;BME280;52200;53.490;14.376;2023-03-19T09:14:12;101386.69;;;10.00;92.77
65557;BME280;52200;53.490;14.376;2023-03-19T09:16:38;101377.31;;;10.06;92.59
65557;BME280;52200;53.490;14.376;2023-03-19T09:19:04;101384.75;;;10.18;92.48
65557;BME280;52200;53.490;14.376;2023-03-19T09:21:30;101385.06;;;9.96;93.51
65557;BME280;52200;53.490;14.376;2023-03-19T09:23:57;101384.75;;;9.54;96.23
65557;BME280;52200;53.490;14.376;2023-03-19T09:26:22;101380.38;;;9.65;96.82
65557;BME280;52200;53.490;14.376;2023-03-19T09:28:48;101384.59;;;9.66;97.05
65557;BME280;52200;53.490;14.376;2023-03-19T09:31:13;101388.25;;;9.42;99.22
65557;BME280;52200;53.490;14.376;2023-03-19T09:33:38;101384.81;;;9.46;99.61
65557;BME280;52200;53.490;14.376;2023-03-19T09:36:04;101383.13;;;9.45;100.00
65557;BME280;52200;53.490;14.376;2023-03-19T09:38:29;101392.56;;;9.37;100.00
65557;BME280;52200;53.490;14.376;2023-03-19T09:46:25;101396.88;;;9.27;100.00
65557;BME280;52200;53.490;14.376;2023-03-19T09:51:24;101405.06;;;9.54;100.00
65557;BME280;52200;53.490;14.376;2023-03-19T09:53:59;101397.00;;;9.91;100.00
65557;BME280;52200;53.490;14.376;2023-03-19T09:56:25;101394.97;;;10.15;100.00
65557;BME280;52200;53.490;14.376;2023-03-19T09:58:52;101391.41;;;10.28;100.00
65557;BME280;52200;53.490;14.376;2023-03-19T10:01:32;101389.28;;;10.58;100.00
65557;BME280;52200;53.490;14.376;2023-03-19T10:06:51;101370.91;;;10.92;100.00
65557;BME280;52200;53.490;14.376;2023-03-19T10:09:29;101355.88;;;11.25;99.47
65557;BME280;52200;53.490;14.376;2023-03-19T10:12:11;101353.09;;;11.38;98.45
65557;BME280;52200;53.490;14.376;2023-03-19T10:14:47;101350.06;;;11.63;97.84
65557;BME280;52200;53.490;14.376;2023-03-19T10:17:34;101358.22;;;12.18;95.74
65557;BME280;52200;53.490;14.376;2023-03-19T10:22:40;101382.50;;;12.69;95.03
65557;BME280;52200;53.490;14.376;2023-03-19T10:25:17;101381.69;;;13.00;93.11
65557;BME280;52200;53.490;14.376;2023-03-19T10:27:45;101370.09;;;12.55;92.61
65557;BME280;52200;53.490;14.376;2023-03-19T10:30:16;101368.00;;;12.36;92.40
65557;BME280;52200;53.490;14.376;2023-03-19T10:33:24;101375.66;;;12.71;91.73
65557;BME280;52200;53.490;14.376;2023-03-19T10:35:43;101373.31;;;12.62;93.41
65557;BME280;52200;53.490;14.376;2023-03-19T10:38:39;101379.94;;;12.69;92.26
65557;BME280;52200;53.490;14.376;2023-03-19T10:43:51;101372.44;;;12.63;93.11
65557;BME280;52200;53.490;14.376;2023-03-19T10:46:18;101370.84;;;12.58;93.15
65557;BME280;52200;53.490;14.376;2023-03-19T10:48:45;101366.47;;;12.64;93.38
65557;BME280;52200;53.490;14.376;2023-03-19T10:51:16;101363.16;;;12.93;92.93
65557;BME280;52200;53.490;14.376;2023-03-19T10:53:43;101355.81;;;12.82;91.70
65557;BME280;52200;53.490;14.376;2023-03-19T10:58:56;101367.06;;;13.06;91.73
65557;BME280;52200;53.490;14.376;2023-03-19T11:01:26;101370.78;;;13.26;90.98
65557;BME280;52200;53.490;14.376;2023-03-19T11:03:57;101376.56;;;13.33;91.26
65557;BME280;52200;53.490;14.376;2023-03-19T11:06:26;101376.38;;;13.70;89.76
65557;BME280;52200;53.490;14.376;2023-03-19T11:08:56;101370.41;;;14.00;88.19
65557;BME280;52200;53.490;14.376;2023-03-19T11:11:23;101379.94;;;13.95;86.85
65557;BME280;52200;53.490;14.376;2023-03-19T11:13:50;101369.34;;;14.07;86.67
65557;BME280;52200;53.490;14.376;2023-03-19T11:16:16;101370.41;;;13.72;88.14
65557;BME280;52200;53.490;14.376;2023-03-19T11:18:46;101370.81;;;13.58;88.21
65557;BME280;52200;53.490;14.376;2023-03-19T11:21:22;101366.53;;;13.27;89.98
65557;BME280;52200;53.490;14.376;2023-03-19T11:23:58;101368.81;;;13.36;90.30
65557;BME280;52200;53.490;14.376;2023-03-19T11:26:24;101365.16;;;13.15;91.39
65557;BME280;52200;53.490;14.376;2023-03-19T11:28:53;101367.59;;;13.18;91.15
65557;BME280;52200;53.490;14.376;2023-03-19T11:31:34;101377.25;;;13.08;92.99
65557;BME280;52200;53.490;14.376;2023-03-19T11:52:29;101375.84;;;13.28;93.07
65557;BME280;52200;53.490;14.376;2023-03-19T12:00:53;101366.91;;;13.74;95.42
65557;BME280;52200;53.490;14.376;2023-03-19T12:09:02;101356.66;;;14.58;91.68
65557;BME280;52200;53.490;14.376;2023-03-19T12:11:51;101359.88;;;14.09;92.61
65557;BME280;52200;53.490;14.376;2023-03-19T12:14:30;101358.34;;;14.32;92.42
65557;BME280;52200;53.490;14.376;2023-03-19T12:20:26;101356.31;;;14.94;89.59
65557;BME280;52200;53.490;14.376;2023-03-19T12:28:28;101355.47;;;15.17;86.82
65557;BME280;52200;53.490;14.376;2023-03-19T12:33:54;101348.25;;;14.54;89.27
65557;BME280;52200;53.490;14.376;2023-03-19T12:36:45;101348.41;;;15.00;87.20
65557;BME280;52200;53.490;14.376;2023-03-19T12:39:21;101338.38;;;14.43;89.55
65557;BME280;52200;53.490;14.376;2023-03-19T12:41:50;101341.47;;;14.78;89.14
65557;BME280;52200;53.490;14.376;2023-03-19T12:44:28;101339.50;;;14.87;87.27
65557;BME280;52200;53.490;14.376;2023-03-19T12:47:02;101346.16;;;14.91;87.92
65557;BME280;52200;53.490;14.376;2023-03-19T12:49:37;101343.97;;;15.05;86.14
65557;BME280;52200;53.490;14.376;2023-03-19T12:52:13;101340.31;;;15.12;84.41
65557;BME280;52200;53.490;14.376;2023-03-19T12:54:52;101339.44;;;15.36;82.69
65557;BME280;52200;53.490;14.376;2023-03-19T12:57:33;101334.34;;;15.12;84.84
65557;BME280;52200;53.490;14.376;2023-03-19T13:00:11;101329.03;;;15.40;82.63
65557;BME280;52200;53.490;14.376;2023-03-19T13:02:57;101326.81;;;15.55;81.54
65557;BME280;52200;53.490;14.376;2023-03-19T13:05:31;101325.78;;;15.59;80.76
65557;BME280;52200;53.490;14.376;2023-03-19T13:11:17;101328.50;;;16.00;81.47
65557;BME280;52200;53.490;14.376;2023-03-19T13:14:00;101324.09;;;16.24;79.12
65557;BME280;52200;53.490;14.376;2023-03-19T13:16:39;101321.22;;;16.11;79.67
65557;BME280;52200;53.490;14.376;2023-03-19T13:21:58;101316.09;;;15.67;78.73
65557;BME280;52200;53.490;14.376;2023-03-19T13:24:32;101318.59;;;15.91;77.61
65557;BME280;52200;53.490;14.376;2023-03-19T13:26:59;101314.03;;;16.20;77.29
65557;BME280;52200;53.490;14.376;2023-03-19T13:29:30;101313.53;;;16.32;76.00
65557;BME280;52200;53.490;14.376;2023-03-19T13:32:07;101314.03;;;16.40;74.89
65557;BME280;52200;53.490;14.376;2023-03-19T13:34:35;101317.34;;;16.84;75.46
65557;BME280;52200;53.490;14.376;2023-03-19T13:37:10;101310.47;;;17.05;73.48
65557;BME280;52200;53.490;14.376;2023-03-19T13:39:38;101309.34;;;16.91;74.07
65557;BME280;52200;53.490;14.376;2023-03-19T13:42:38;101319.47;;;16.74;73.19
65557;BME280;52200;53.490;14.376;2023-03-19T13:45:29;101309.97;;;16.97;73.97
65557;BME280;52200;53.490;14.376;2023-03-19T13:48:22;101313.19;;;16.81;72.29
65557;BME280;52200;53.490;14.376;2023-03-19T13:51:00;101313.09;;;16.64;71.94
65557;BME280;52200;53.490;14.376;2023-03-19T13:53:33;101305.47;;;16.41;75.17
65557;BME280;52200;53.490;14.376;2023-03-19T13:56:10;101298.31;;;16.07;73.96
65557;BME280;52200;53.490;14.376;2023-03-19T13:58:51;101301.56;;;15.90;75.02
65557;BME280;52200;53.490;14.376;2023-03-19T14:06:52;101300.56;;;15.94;75.61